sensor_id;sensor_type;location;lat;lon;timestamp;temperature;humidity
79020;DHT22;72857;44.740;37.770;2023-09-19T15:21:11;26.66;29.53
79020;DHT22;72857;44.740;37.770;2023-09-19T15:22:13;26.66;30.18
79020;DHT22;72857;44.740;37.770;2023-09-19T15:23:15;26.69;30.01
79020;DHT22;72857;44.740;37.770;2023-09-19T15:24:19;26.67;29.97
79020;DHT22;72857;44.740;37.770;2023-09-19T15:25:53;26.64;29.46
79020;DHT22;72857;44.740;37.770;2023-09-19T15:26:54;26.63;29.54
79020;DHT22;72857;44.740;37.770;2023-09-19T15:27:56;26.63;29.55
79020;DHT22;72857;44.740;37.770;2023-09-19T15:28:58;26.66;29.61
79020;DHT22;72857;44.740;37.770;2023-09-19T15:30:01;26.66;29.34
79020;DHT22;72857;44.740;37.770;2023-09-19T15:31:08;26.69;29.29
79020;DHT22;72857;44.740;37.770;2023-09-19T15:32:09;26.72;29.57
79020;DHT22;72857;44.740;37.770;2023-09-19T15:33:11;26.72;30.04
79020;DHT22;72857;44.740;37.770;2023-09-19T15:34:12;26.70;30.28
79020;DHT22;72857;44.740;37.770;2023-09-19T15:35:17;26.72;30.06
79020;DHT22;72857;44.740;37.770;2023-09-19T15:36:19;26.67;29.90
79020;DHT22;72857;44.740;37.770;2023-09-19T15:37:20;26.66;29.50
79020;DHT22;72857;44.740;37.770;2023-09-19T15:38:21;26.63;29.75
79020;DHT22;72857;44.740;37.770;2023-09-19T15:39:23;26.61;29.41
79020;DHT22;72857;44.740;37.770;2023-09-19T15:40:25;26.64;29.54
79020;DHT22;72857;44.740;37.770;2023-09-19T15:41:31;26.63;29.80
79020;DHT22;72857;44.740;37.770;2023-09-19T15:42:33;26.66;29.59
79020;DHT22;72857;44.740;37.770;2023-09-19T15:43:34;26.67;29.62
79020;DHT22;72857;44.740;37.770;2023-09-19T15:44:35;26.64;29.29
79020;DHT22;72857;44.740;37.770;2023-09-19T15:45:37;26.64;29.77
79020;DHT22;72857;44.740;37.770;2023-09-19T15:46:39;26.67;29.28
79020;DHT22;72857;44.740;37.770;2023-09-19T15:47:42;26.67;29.42
79020;DHT22;72857;44.740;37.770;2023-09-19T15:48:43;26.67;29.40
79020;DHT22;72857;44.740;37.770;2023-09-19T15:49:47;26.67;29.53
79020;DHT22;72857;44.740;37.770;2023-09-19T15:50:50;26.64;30.02
79020;DHT22;72857;44.740;37.770;2023-09-19T15:51:51;26.57;30.80
79020;DHT22;72857;44.740;37.770;2023-09-19T15:52:53;26.53;30.24
79020;DHT22;72857;44.740;37.770;2023-09-19T15:53:58;26.53;30.86
79020;DHT22;72857;44.740;37.770;2023-09-19T15:55:03;26.53;30.32
79020;DHT22;72857;44.740;37.770;2023-09-19T15:56:08;26.49;30.41
79020;DHT22;72857;44.740;37.770;2023-09-19T15:57:10;26.43;30.67
79020;DHT22;72857;44.740;37.770;2023-09-19T15:58:13;26.38;30.46
79020;DHT22;72857;44.740;37.770;2023-09-19T15:59:15;26.33;30.61
79020;DHT22;72857;44.740;37.770;2023-09-19T16:00:16;26.32;30.80
79020;DHT22;72857;44.740;37.770;2023-09-19T16:01:21;26.33;30.98
79020;DHT22;72857;44.740;37.770;2023-09-19T16:02:22;26.29;30.07
79020;DHT22;72857;44.740;37.770;2023-09-19T16:03:24;26.33;30.41
79020;DHT22;72857;44.740;37.770;2023-09-19T16:04:28;26.31;29.97
79020;DHT22;72857;44.740;37.770;2023-09-19T16:05:36;26.28;29.98
79020;DHT22;72857;44.740;37.770;2023-09-19T16:06:38;26.32;30.22
79020;DHT22;72857;44.740;37.770;2023-09-19T16:07:40;26.31;30.94
79020;DHT22;72857;44.740;37.770;2023-09-19T16:08:46;26.25;30.35
79020;DHT22;72857;44.740;37.770;2023-09-19T16:09:50;26.24;30.78
79020;DHT22;72857;44.740;37.770;2023-09-19T16:10:51;26.18;30.44
79020;DHT22;72857;44.740;37.770;2023-09-19T16:11:53;26.18;30.62
79020;DHT22;72857;44.740;37.770;2023-09-19T16:12:54;26.16;31.35
79020;DHT22;72857;44.740;37.770;2023-09-19T16:13:56;26.15;31.12
79020;DHT22;72857;44.740;37.770;2023-09-19T16:14:57;26.14;30.95
79020;DHT22;72857;44.740;37.770;2023-09-19T16:15:59;26.11;31.13
79020;DHT22;72857;44.740;37.770;2023-09-19T16:17:00;26.08;30.83
79020;DHT22;72857;44.740;37.770;2023-09-19T16:18:03;26.08;31.19
79020;DHT22;72857;44.740;37.770;2023-09-19T16:19:05;26.02;31.13
79020;DHT22;72857;44.740;37.770;2023-09-19T16:20:11;25.97;31.43
79020;DHT22;72857;44.740;37.770;2023-09-19T16:21:13;25.89;31.47
79020;DHT22;72857;44.740;37.770;2023-09-19T16:22:14;25.92;31.54
79020;DHT22;72857;44.740;37.770;2023-09-19T16:23:16;25.89;31.53
79020;DHT22;72857;44.740;37.770;2023-09-19T16:24:17;25.88;30.61
79020;DHT22;72857;44.740;37.770;2023-09-19T16:25:19;25.94;30.53
79020;DHT22;72857;44.740;37.770;2023-09-19T16:26:21;25.97;30.64
79020;DHT22;72857;44.740;37.770;2023-09-19T16:27:22;25.98;30.64
79020;DHT22;72857;44.740;37.770;2023-09-19T16:28:24;25.98;30.58
79020;DHT22;72857;44.740;37.770;2023-09-19T16:29:25;26.01;30.25
79020;DHT22;72857;44.740;37.770;2023-09-19T16:30:27;25.99;30.37
79020;DHT22;72857;44.740;37.770;2023-09-19T16:31:30;25.99;30.81
79020;DHT22;72857;44.740;37.770;2023-09-19T16:32:33;25.97;31.01
79020;DHT22;72857;44.740;37.770;2023-09-19T16:33:36;25.94;30.56
79020;DHT22;72857;44.740;37.770;2023-09-19T16:34:38;25.91;30.67
79020;DHT22;72857;44.740;37.770;2023-09-19T16:35:39;25.92;31.25
79020;DHT22;72857;44.740;37.770;2023-09-19T16:36:41;25.91;31.47
79020;DHT22;72857;44.740;37.770;2023-09-19T16:37:43;25.87;31.61
79020;DHT22;72857;44.740;37.770;2023-09-19T16:38:47;25.84;31.37
79020;DHT22;72857;44.740;37.770;2023-09-19T16:39:51;25.81;30.94
79020;DHT22;72857;44.740;37.770;2023-09-19T16:40:56;25.75;31.10
79020;DHT22;72857;44.740;37.770;2023-09-19T16:41:59;25.71;31.27
79020;DHT22;72857;44.740;37.770;2023-09-19T16:43:00;25.70;31.66
79020;DHT22;72857;44.740;37.770;2023-09-19T16:44:02;25.61;31.67
79020;DHT22;72857;44.740;37.770;2023-09-19T16:45:09;25.56;31.80
79020;DHT22;72857;44.740;37.770;2023-09-19T16:46:14;25.48;32.04
79020;DHT22;72857;44.740;37.770;2023-09-19T16:47:17;25.48;32.14
79020;DHT22;72857;44.740;37.770;2023-09-19T16:48:19;25.46;32.48
79020;DHT22;72857;44.740;37.770;2023-09-19T16:49:20;25.31;32.40
79020;DHT22;72857;44.740;37.770;2023-09-19T16:50:22;25.26;32.43
79020;DHT22;72857;44.740;37.770;2023-09-19T16:51:23;25.26;32.20
79020;DHT22;72857;44.740;37.770;2023-09-19T16:52:25;25.23;32.38
79020;DHT22;72857;44.740;37.770;2023-09-19T16:53:26;25.23;32.53
79020;DHT22;72857;44.740;37.770;2023-09-19T16:54:27;25.17;32.78
79020;DHT22;72857;44.740;37.770;2023-09-19T16:55:29;25.12;32.30
79020;DHT22;72857;44.740;37.770;2023-09-19T16:56:30;25.15;32.29
79020;DHT22;72857;44.740;37.770;2023-09-19T16:57:37;25.12;32.70
79020;DHT22;72857;44.740;37.770;2023-09-19T16:58:41;25.13;32.99
79020;DHT22;72857;44.740;37.770;2023-09-19T16:59:43;25.12;33.00
79020;DHT22;72857;44.740;37.770;2023-09-19T17:00:44;25.06;33.59
79020;DHT22;72857;44.740;37.770;2023-09-19T17:01:50;25.03;33.72
79020;DHT22;72857;44.740;37.770;2023-09-19T17:02:51;24.97;33.51
79020;DHT22;72857;44.740;37.770;2023-09-19T17:03:53;24.96;33.21
79020;DHT22;72857;44.740;37.770;2023-09-19T17:04:54;24.92;33.59
79020;DHT22;72857;44.740;37.770;2023-09-19T17:05:58;24.90;33.54
79020;DHT22;72857;44.740;37.770;2023-09-19T17:07:00;24.88;33.24
79020;DHT22;72857;44.740;37.770;2023-09-19T17:08:01;24.89;33.24
79020;DHT22;72857;44.740;37.770;2023-09-19T17:09:03;24.86;33.78
79020;DHT22;72857;44.740;37.770;2023-09-19T17:10:05;24.82;33.88
79020;DHT22;72857;44.740;37.770;2023-09-19T17:11:10;24.78;33.85
79020;DHT22;72857;44.740;37.770;2023-09-19T17:12:11;24.73;33.81
79020;DHT22;72857;44.740;37.770;2023-09-19T17:13:15;24.69;33.96
79020;DHT22;72857;44.740;37.770;2023-09-19T17:14:16;24.68;34.10
79020;DHT22;72857;44.740;37.770;2023-09-19T17:15:17;24.62;33.78
79020;DHT22;72857;44.740;37.770;2023-09-19T17:16:19;24.58;34.01
79020;DHT22;72857;44.740;37.770;2023-09-19T17:17:22;24.58;33.69
79020;DHT22;72857;44.740;37.770;2023-09-19T17:18:24;24.55;33.66
79020;DHT22;72857;44.740;37.770;2023-09-19T17:19:25;24.51;33.18
79020;DHT22;72857;44.740;37.770;2023-09-19T17:20:27;24.51;33.39
79020;DHT22;72857;44.740;37.770;2023-09-19T17:21:31;24.55;33.30
79020;DHT22;72857;44.740;37.770;2023-09-19T17:22:33;24.57;33.34
79020;DHT22;72857;44.740;37.770;2023-09-19T17:23:34;24.59;33.26
79020;DHT22;72857;44.740;37.770;2023-09-19T17:24:35;24.59;33.41
79020;DHT22;72857;44.740;37.770;2023-09-19T17:25:37;24.58;33.27
79020;DHT22;72857;44.740;37.770;2023-09-19T17:26:38;24.55;33.23
79020;DHT22;72857;44.740;37.770;2023-09-19T17:27:39;24.54;33.12
79020;DHT22;72857;44.740;37.770;2023-09-19T17:28:41;24.52;32.42
79020;DHT22;72857;44.740;37.770;2023-09-19T17:29:42;24.61;32.49
79020;DHT22;72857;44.740;37.770;2023-09-19T17:30:44;24.65;32.08
79020;DHT22;72857;44.740;37.770;2023-09-19T17:31:45;24.69;32.08
79020;DHT22;72857;44.740;37.770;2023-09-19T17:32:46;24.71;32.44
79020;DHT22;72857;44.740;37.770;2023-09-19T17:33:49;24.69;32.39
79020;DHT22;72857;44.740;37.770;2023-09-19T17:34:51;24.69;32.52
79020;DHT22;72857;44.740;37.770;2023-09-19T17:37:08;24.68;33.21
79020;DHT22;72857;44.740;37.770;2023-09-19T17:38:09;24.68;33.07
79020;DHT22;72857;44.740;37.770;2023-09-19T17:39:11;24.61;32.86
79020;DHT22;72857;44.740;37.770;2023-09-19T17:40:16;24.62;32.00
79020;DHT22;72857;44.740;37.770;2023-09-19T17:41:17;24.68;31.67
79020;DHT22;72857;44.740;37.770;2023-09-19T17:42:19;24.75;31.94
79020;DHT22;72857;44.740;37.770;2023-09-19T17:43:21;24.75;31.69
79020;DHT22;72857;44.740;37.770;2023-09-19T17:44:22;24.80;31.77
79020;DHT22;72857;44.740;37.770;2023-09-19T17:45:24;24.78;32.06
79020;DHT22;72857;44.740;37.770;2023-09-19T17:46:26;24.73;32.27
79020;DHT22;72857;44.740;37.770;2023-09-19T17:47:30;24.71;32.31
79020;DHT22;72857;44.740;37.770;2023-09-19T17:48:31;24.66;32.54
79020;DHT22;72857;44.740;37.770;2023-09-19T17:49:33;24.66;32.49
79020;DHT22;72857;44.740;37.770;2023-09-19T17:50:34;24.61;32.56
79020;DHT22;72857;44.740;37.770;2023-09-19T17:51:37;24.57;32.57
79020;DHT22;72857;44.740;37.770;2023-09-19T17:52:43;24.55;32.31
79020;DHT22;72857;44.740;37.770;2023-09-19T17:53:46;24.55;32.10
79020;DHT22;72857;44.740;37.770;2023-09-19T17:54:48;24.59;32.43
79020;DHT22;72857;44.740;37.770;2023-09-19T17:55:53;24.61;31.59
79020;DHT22;72857;44.740;37.770;2023-09-19T17:56:54;24.65;32.02
79020;DHT22;72857;44.740;37.770;2023-09-19T17:57:56;24.64;32.26
79020;DHT22;72857;44.740;37.770;2023-09-19T17:58:59;24.59;32.31
79020;DHT22;72857;44.740;37.770;2023-09-19T18:00:01;24.54;32.50
79020;DHT22;72857;44.740;37.770;2023-09-19T18:01:17;24.51;32.69
79020;DHT22;72857;44.740;37.770;2023-09-19T18:02:23;24.44;33.11
79020;DHT22;72857;44.740;37.770;2023-09-19T18:03:25;24.38;33.01
79020;DHT22;72857;44.740;37.770;2023-09-19T18:04:28;24.34;33.17
79020;DHT22;72857;44.740;37.770;2023-09-19T18:05:30;24.29;33.37
79020;DHT22;72857;44.740;37.770;2023-09-19T18:06:32;24.21;33.34
79020;DHT22;72857;44.740;37.770;2023-09-19T18:07:33;24.21;33.48
79020;DHT22;72857;44.740;37.770;2023-09-19T18:08:35;24.20;33.72
79020;DHT22;72857;44.740;37.770;2023-09-19T18:09:38;24.20;33.56
79020;DHT22;72857;44.740;37.770;2023-09-19T18:10:39;24.17;33.64
79020;DHT22;72857;44.740;37.770;2023-09-19T18:11:41;24.16;33.89
79020;DHT22;72857;44.740;37.770;2023-09-19T18:12:43;24.13;33.96
79020;DHT22;72857;44.740;37.770;2023-09-19T18:13:46;24.10;33.88
79020;DHT22;72857;44.740;37.770;2023-09-19T18:14:52;24.07;33.89
79020;DHT22;72857;44.740;37.770;2023-09-19T18:15:55;24.04;33.86
79020;DHT22;72857;44.740;37.770;2023-09-19T18:16:56;24.06;34.00
79020;DHT22;72857;44.740;37.770;2023-09-19T18:17:59;24.07;33.99
79020;DHT22;72857;44.740;37.770;2023-09-19T18:19:01;24.07;34.03
79020;DHT22;72857;44.740;37.770;2023-09-19T18:20:04;24.07;34.06
79020;DHT22;72857;44.740;37.770;2023-09-19T18:21:07;24.03;34.11
79020;DHT22;72857;44.740;37.770;2023-09-19T18:22:09;24.03;34.19
79020;DHT22;72857;44.740;37.770;2023-09-19T18:23:12;24.06;34.21
79020;DHT22;72857;44.740;37.770;2023-09-19T18:24:14;24.04;34.25
79020;DHT22;72857;44.740;37.770;2023-09-19T18:25:15;24.06;34.23
79020;DHT22;72857;44.740;37.770;2023-09-19T18:26:18;24.03;34.06
79020;DHT22;72857;44.740;37.770;2023-09-19T18:27:19;24.01;34.60
79020;DHT22;72857;44.740;37.770;2023-09-19T18:28:22;23.97;34.65
79020;DHT22;72857;44.740;37.770;2023-09-19T18:29:24;23.92;34.85
79020;DHT22;72857;44.740;37.770;2023-09-19T18:30:25;23.84;35.00
79020;DHT22;72857;44.740;37.770;2023-09-19T18:31:28;23.81;35.24
79020;DHT22;72857;44.740;37.770;2023-09-19T18:32:30;23.79;35.22
79020;DHT22;72857;44.740;37.770;2023-09-19T18:33:32;23.74;35.23
79020;DHT22;72857;44.740;37.770;2023-09-19T18:34:37;23.71;35.60
79020;DHT22;72857;44.740;37.770;2023-09-19T18:35:38;23.67;35.47
79020;DHT22;72857;44.740;37.770;2023-09-19T18:36:41;23.69;35.59
79020;DHT22;72857;44.740;37.770;2023-09-19T18:37:44;23.62;35.61
79020;DHT22;72857;44.740;37.770;2023-09-19T18:38:48;23.60;35.10
79020;DHT22;72857;44.740;37.770;2023-09-19T18:39:50;23.62;35.24
79020;DHT22;72857;44.740;37.770;2023-09-19T18:40:52;23.60;35.41
79020;DHT22;72857;44.740;37.770;2023-09-19T18:41:53;23.63;35.63
79020;DHT22;72857;44.740;37.770;2023-09-19T18:42:55;23.60;35.87
79020;DHT22;72857;44.740;37.770;2023-09-19T18:43:56;23.57;36.15
79020;DHT22;72857;44.740;37.770;2023-09-19T18:44:59;23.55;35.90
79020;DHT22;72857;44.740;37.770;2023-09-19T18:46:01;23.50;36.09
79020;DHT22;72857;44.740;37.770;2023-09-19T18:47:02;23.52;36.25
79020;DHT22;72857;44.740;37.770;2023-09-19T18:48:05;23.50;35.80
79020;DHT22;72857;44.740;37.770;2023-09-19T18:49:06;23.53;35.85
79020;DHT22;72857;44.740;37.770;2023-09-19T18:50:09;23.50;35.40
79020;DHT22;72857;44.740;37.770;2023-09-19T18:51:10;23.48;35.48
79020;DHT22;72857;44.740;37.770;2023-09-19T18:52:15;23.46;35.98
79020;DHT22;72857;44.740;37.770;2023-09-19T18:53:17;23.48;35.85
79020;DHT22;72857;44.740;37.770;2023-09-19T18:54:23;23.43;35.58
79020;DHT22;72857;44.740;37.770;2023-09-19T18:55:25;23.35;35.44
79020;DHT22;72857;44.740;37.770;2023-09-19T18:56:27;23.35;35.32
79020;DHT22;72857;44.740;37.770;2023-09-19T18:57:28;23.38;35.35
79020;DHT22;72857;44.740;37.770;2023-09-19T18:58:29;23.42;35.01
79020;DHT22;72857;44.740;37.770;2023-09-19T18:59:31;23.45;35.15
79020;DHT22;72857;44.740;37.770;2023-09-19T19:00:35;23.46;35.01
79020;DHT22;72857;44.740;37.770;2023-09-19T19:01:36;23.49;34.76
79020;DHT22;72857;44.740;37.770;2023-09-19T19:02:38;23.52;34.90
79020;DHT22;72857;44.740;37.770;2023-09-19T19:03:39;23.50;34.76
79020;DHT22;72857;44.740;37.770;2023-09-19T19:04:46;23.50;34.96
79020;DHT22;72857;44.740;37.770;2023-09-19T19:05:47;23.48;34.87
79020;DHT22;72857;44.740;37.770;2023-09-19T19:06:48;23.50;35.00
79020;DHT22;72857;44.740;37.770;2023-09-19T19:07:50;23.50;34.80
79020;DHT22;72857;44.740;37.770;2023-09-19T19:08:51;23.48;35.13
79020;DHT22;72857;44.740;37.770;2023-09-19T19:09:54;23.42;35.00
79020;DHT22;72857;44.740;37.770;2023-09-19T19:10:56;23.45;34.92
79020;DHT22;72857;44.740;37.770;2023-09-19T19:11:57;23.46;35.21
79020;DHT22;72857;44.740;37.770;2023-09-19T19:12:59;23.45;35.32
79020;DHT22;72857;44.740;37.770;2023-09-19T19:14:02;23.41;35.07
79020;DHT22;72857;44.740;37.770;2023-09-19T19:15:04;23.42;34.96
79020;DHT22;72857;44.740;37.770;2023-09-19T19:16:07;23.45;34.25
79020;DHT22;72857;44.740;37.770;2023-09-19T19:17:11;23.50;35.44
79020;DHT22;72857;44.740;37.770;2023-09-19T19:18:14;23.45;34.77
79020;DHT22;72857;44.740;37.770;2023-09-19T19:19:16;23.43;35.04
79020;DHT22;72857;44.740;37.770;2023-09-19T19:20:17;23.46;35.50
79020;DHT22;72857;44.740;37.770;2023-09-19T19:21:24;23.43;35.20
79020;DHT22;72857;44.740;37.770;2023-09-19T19:22:28;23.45;35.06
79020;DHT22;72857;44.740;37.770;2023-09-19T19:23:30;23.45;35.11
79020;DHT22;72857;44.740;37.770;2023-09-19T19:24:32;23.39;35.17
79020;DHT22;72857;44.740;37.770;2023-09-19T19:25:36;23.39;34.68
79020;DHT22;72857;44.740;37.770;2023-09-19T19:26:37;23.43;34.60
79020;DHT22;72857;44.740;37.770;2023-09-19T19:27:39;23.46;34.92
79020;DHT22;72857;44.740;37.770;2023-09-19T19:28:41;23.46;34.93
79020;DHT22;72857;44.740;37.770;2023-09-19T19:29:46;23.43;35.12
79020;DHT22;72857;44.740;37.770;2023-09-19T19:30:48;23.41;34.90
79020;DHT22;72857;44.740;37.770;2023-09-19T19:31:50;23.36;34.70
79020;DHT22;72857;44.740;37.770;2023-09-19T19:32:53;23.39;34.80
79020;DHT22;72857;44.740;37.770;2023-09-19T19:33:55;23.39;34.48
79020;DHT22;72857;44.740;37.770;2023-09-19T19:34:57;23.45;34.49
79020;DHT22;72857;44.740;37.770;2023-09-19T19:36:06;23.48;34.43
79020;DHT22;72857;44.740;37.770;2023-09-19T19:37:08;23.49;34.75
79020;DHT22;72857;44.740;37.770;2023-09-19T19:38:13;23.48;34.49
79020;DHT22;72857;44.740;37.770;2023-09-19T19:39:15;23.46;34.73
79020;DHT22;72857;44.740;37.770;2023-09-19T19:40:16;23.48;34.76
79020;DHT22;72857;44.740;37.770;2023-09-19T19:41:18;23.43;34.65
79020;DHT22;72857;44.740;37.770;2023-09-19T19:42:19;23.39;34.85
79020;DHT22;72857;44.740;37.770;2023-09-19T19:43:21;23.38;35.26
79020;DHT22;72857;44.740;37.770;2023-09-19T19:44:23;23.35;34.68
79020;DHT22;72857;44.740;37.770;2023-09-19T19:45:27;23.35;34.71
79020;DHT22;72857;44.740;37.770;2023-09-19T19:46:29;23.36;34.40
79020;DHT22;72857;44.740;37.770;2023-09-19T19:47:31;23.41;34.61
79020;DHT22;72857;44.740;37.770;2023-09-19T19:48:33;23.43;34.49
79020;DHT22;72857;44.740;37.770;2023-09-19T19:49:42;23.43;34.75
79020;DHT22;72857;44.740;37.770;2023-09-19T19:50:44;23.42;34.51
79020;DHT22;72857;44.740;37.770;2023-09-19T19:51:46;23.43;34.63
79020;DHT22;72857;44.740;37.770;2023-09-19T19:52:52;23.46;34.60
79020;DHT22;72857;44.740;37.770;2023-09-19T19:54:03;23.46;34.74
79020;DHT22;72857;44.740;37.770;2023-09-19T19:55:05;23.43;35.00
79020;DHT22;72857;44.740;37.770;2023-09-19T19:56:07;23.41;34.69
79020;DHT22;72857;44.740;37.770;2023-09-19T19:57:10;23.41;34.68
79020;DHT22;72857;44.740;37.770;2023-09-19T19:58:12;23.42;34.52
79020;DHT22;72857;44.740;37.770;2023-09-19T19:59:16;23.38;34.98
79020;DHT22;72857;44.740;37.770;2023-09-19T20:00:19;23.30;34.89
79020;DHT22;72857;44.740;37.770;2023-09-19T20:01:21;23.30;35.06
79020;DHT22;72857;44.740;37.770;2023-09-19T20:02:23;23.26;35.07
79020;DHT22;72857;44.740;37.770;2023-09-19T20:03:26;23.20;35.02
79020;DHT22;72857;44.740;37.770;2023-09-19T20:04:27;23.19;35.25
79020;DHT22;72857;44.740;37.770;2023-09-19T20:05:29;23.18;35.21
79020;DHT22;72857;44.740;37.770;2023-09-19T20:06:31;23.12;35.19
79020;DHT22;72857;44.740;37.770;2023-09-19T20:07:33;23.12;35.29
79020;DHT22;72857;44.740;37.770;2023-09-19T20:08:35;23.12;35.26
79020;DHT22;72857;44.740;37.770;2023-09-19T20:09:36;23.14;35.32
79020;DHT22;72857;44.740;37.770;2023-09-19T20:10:41;23.11;35.69
79020;DHT22;72857;44.740;37.770;2023-09-19T20:11:42;23.12;35.47
79020;DHT22;72857;44.740;37.770;2023-09-19T20:12:44;23.09;35.59
79020;DHT22;72857;44.740;37.770;2023-09-19T20:13:46;23.11;35.35
79020;DHT22;72857;44.740;37.770;2023-09-19T20:14:47;23.09;35.22
79020;DHT22;72857;44.740;37.770;2023-09-19T20:15:55;23.09;35.44
79020;DHT22;72857;44.740;37.770;2023-09-19T20:16:57;23.05;35.56
79020;DHT22;72857;44.740;37.770;2023-09-19T20:18:01;23.02;35.54
79020;DHT22;72857;44.740;37.770;2023-09-19T20:19:03;22.99;35.51
79020;DHT22;72857;44.740;37.770;2023-09-19T20:20:08;22.99;35.62
79020;DHT22;72857;44.740;37.770;2023-09-19T20:21:20;22.95;35.72
79020;DHT22;72857;44.740;37.770;2023-09-19T20:22:23;22.95;35.91
79020;DHT22;72857;44.740;37.770;2023-09-19T20:23:25;22.94;35.86
79020;DHT22;72857;44.740;37.770;2023-09-19T20:24:29;22.94;35.98
79020;DHT22;72857;44.740;37.770;2023-09-19T20:25:33;22.91;35.94
79020;DHT22;72857;44.740;37.770;2023-09-19T20:26:36;22.88;36.00
79020;DHT22;72857;44.740;37.770;2023-09-19T20:27:42;22.83;36.10
79020;DHT22;72857;44.740;37.770;2023-09-19T20:28:43;22.78;36.01
79020;DHT22;72857;44.740;37.770;2023-09-19T20:29:45;22.71;36.27
79020;DHT22;72857;44.740;37.770;2023-09-19T20:30:48;22.72;36.34
79020;DHT22;72857;44.740;37.770;2023-09-19T20:31:51;22.75;36.28
79020;DHT22;72857;44.740;37.770;2023-09-19T20:32:55;22.75;36.23
79020;DHT22;72857;44.740;37.770;2023-09-19T20:33:58;22.72;36.36
79020;DHT22;72857;44.740;37.770;2023-09-19T20:35:02;22.72;36.47
79020;DHT22;72857;44.740;37.770;2023-09-19T20:36:05;22.70;36.65
79020;DHT22;72857;44.740;37.770;2023-09-19T20:37:10;22.67;36.60
79020;DHT22;72857;44.740;37.770;2023-09-19T20:38:13;22.65;36.71
79020;DHT22;72857;44.740;37.770;2023-09-19T20:39:15;22.65;36.81
79020;DHT22;72857;44.740;37.770;2023-09-19T20:40:19;22.60;36.51
79020;DHT22;72857;44.740;37.770;2023-09-19T20:41:24;22.61;36.70
79020;DHT22;72857;44.740;37.770;2023-09-19T20:42:27;22.56;36.61
79020;DHT22;72857;44.740;37.770;2023-09-19T20:43:41;22.56;36.54
79020;DHT22;72857;44.740;37.770;2023-09-19T20:44:51;22.57;36.88
79020;DHT22;72857;44.740;37.770;2023-09-19T20:46:01;22.57;36.61
79020;DHT22;72857;44.740;37.770;2023-09-19T20:47:05;22.57;36.74
79020;DHT22;72857;44.740;37.770;2023-09-19T20:48:06;22.50;36.84
79020;DHT22;72857;44.740;37.770;2023-09-19T20:49:08;22.47;37.16
79020;DHT22;72857;44.740;37.770;2023-09-19T20:50:10;22.46;37.30
79020;DHT22;72857;44.740;37.770;2023-09-19T20:51:12;22.41;36.73
79020;DHT22;72857;44.740;37.770;2023-09-19T20:52:16;22.41;36.62
79020;DHT22;72857;44.740;37.770;2023-09-19T20:53:18;22.41;36.82
79020;DHT22;72857;44.740;37.770;2023-09-19T20:54:19;22.46;36.96
79020;DHT22;72857;44.740;37.770;2023-09-19T20:55:20;22.48;36.47
79020;DHT22;72857;44.740;37.770;2023-09-19T20:56:21;22.51;36.59
79020;DHT22;72857;44.740;37.770;2023-09-19T20:57:23;22.50;36.93
79020;DHT22;72857;44.740;37.770;2023-09-19T20:58:24;22.46;36.83
79020;DHT22;72857;44.740;37.770;2023-09-19T20:59:26;22.44;36.67
79020;DHT22;72857;44.740;37.770;2023-09-19T21:00:27;22.43;36.72
79020;DHT22;72857;44.740;37.770;2023-09-19T21:01:29;22.39;36.78
79020;DHT22;72857;44.740;37.770;2023-09-19T21:02:33;22.41;37.03
79020;DHT22;72857;44.740;37.770;2023-09-19T21:03:36;22.40;37.07
79020;DHT22;72857;44.740;37.770;2023-09-19T21:04:38;22.41;36.99
79020;DHT22;72857;44.740;37.770;2023-09-19T21:05:40;22.37;37.04
79020;DHT22;72857;44.740;37.770;2023-09-19T21:06:41;22.37;37.09
79020;DHT22;72857;44.740;37.770;2023-09-19T21:07:43;22.37;37.33
79020;DHT22;72857;44.740;37.770;2023-09-19T21:08:44;22.35;36.77
79020;DHT22;72857;44.740;37.770;2023-09-19T21:09:46;22.33;36.67
79020;DHT22;72857;44.740;37.770;2023-09-19T21:10:47;22.35;36.79
79020;DHT22;72857;44.740;37.770;2023-09-19T21:11:48;22.36;36.67
79020;DHT22;72857;44.740;37.770;2023-09-19T21:12:50;22.37;36.89
79020;DHT22;72857;44.740;37.770;2023-09-19T21:13:51;22.36;36.73
79020;DHT22;72857;44.740;37.770;2023-09-19T21:14:53;22.37;36.83
79020;DHT22;72857;44.740;37.770;2023-09-19T21:15:56;22.39;36.70
79020;DHT22;72857;44.740;37.770;2023-09-19T21:16:58;22.41;36.72
79020;DHT22;72857;44.740;37.770;2023-09-19T21:17:59;22.44;36.82
79020;DHT22;72857;44.740;37.770;2023-09-19T21:19:00;22.37;36.84
79020;DHT22;72857;44.740;37.770;2023-09-19T21:20:05;22.36;36.98
79020;DHT22;72857;44.740;37.770;2023-09-19T21:21:09;22.32;36.82
79020;DHT22;72857;44.740;37.770;2023-09-19T21:22:15;22.33;37.05
79020;DHT22;72857;44.740;37.770;2023-09-19T21:23:16;22.32;37.06
79020;DHT22;72857;44.740;37.770;2023-09-19T21:24:18;22.27;37.14
79020;DHT22;72857;44.740;37.770;2023-09-19T21:25:21;22.26;36.85
79020;DHT22;72857;44.740;37.770;2023-09-19T21:26:23;22.27;36.97
79020;DHT22;72857;44.740;37.770;2023-09-19T21:27:24;22.30;36.87
79020;DHT22;72857;44.740;37.770;2023-09-19T21:28:26;22.27;37.25
79020;DHT22;72857;44.740;37.770;2023-09-19T21:29:28;22.32;36.82
79020;DHT22;72857;44.740;37.770;2023-09-19T21:30:30;22.35;36.92
79020;DHT22;72857;44.740;37.770;2023-09-19T21:31:31;22.33;36.77
79020;DHT22;72857;44.740;37.770;2023-09-19T21:32:34;22.35;36.65
79020;DHT22;72857;44.740;37.770;2023-09-19T21:33:38;22.36;36.57
79020;DHT22;72857;44.740;37.770;2023-09-19T21:34:40;22.35;36.76
79020;DHT22;72857;44.740;37.770;2023-09-19T21:35:45;22.36;36.51
79020;DHT22;72857;44.740;37.770;2023-09-19T21:36:46;22.37;36.60
79020;DHT22;72857;44.740;37.770;2023-09-19T21:37:47;22.40;36.51
79020;DHT22;72857;44.740;37.770;2023-09-19T21:38:49;22.43;36.53
79020;DHT22;72857;44.740;37.770;2023-09-19T21:39:51;22.44;36.39
79020;DHT22;72857;44.740;37.770;2023-09-19T21:40:52;22.46;36.20
79020;DHT22;72857;44.740;37.770;2023-09-19T21:41:53;22.44;36.11
79020;DHT22;72857;44.740;37.770;2023-09-19T21:42:55;22.47;36.21
79020;DHT22;72857;44.740;37.770;2023-09-19T21:43:56;22.48;35.90
79020;DHT22;72857;44.740;37.770;2023-09-19T21:44:58;22.51;35.79
79020;DHT22;72857;44.740;37.770;2023-09-19T21:45:59;22.57;35.72
79020;DHT22;72857;44.740;37.770;2023-09-19T21:47:00;22.56;35.77
79020;DHT22;72857;44.740;37.770;2023-09-19T21:48:04;22.58;35.77
79020;DHT22;72857;44.740;37.770;2023-09-19T21:49:05;22.58;35.85
79020;DHT22;72857;44.740;37.770;2023-09-19T21:50:07;22.57;35.81
79020;DHT22;72857;44.740;37.770;2023-09-19T21:51:08;22.57;36.09